La Jara, New Mexico
Current Conditions -  °F | °C
As of 6:15 PM on Saturday 22 Nov 2014 (Local Time) from KLAM Reporting Station
Clear Clear  
Wind Chill: 43°   Ceiling: Unl
Heat Index: 43°   Visibility: 10mi
Dew Point: 17°   Wind: 0mph
Humidity: 35%   Direction: NA
Pressure: 29.93"   Gusts: NA
Location:  36.09°N, 106.97°W
Report Text: KLAM 230115Z AUTO 00000KT 10SM CLR 06/M08 A2993 RMK AO2 T00611084
Loading
Personal Weather Stations






























Interactive Weather Map New forecast layout! Learn more

10-Day Weather Forecast

Advertisements
Track Severe Weather on mobile